Accueil
METAR-TAF:

METAR-TAF

Aéroports :

Aéroport de Luxembourg-Findel

Luxembourg, Luxembourg

latitude: 49-37N, longitude: 006-13E, altitude: 376 m

Observation

Le bulletin a été fait il y a 37 minutes, à 20:50 UTC
Vent 12 kt de est/nord-est
Température 4°C
Humidité 65%
Pression 1025 hPa
Visibilité 10 km ou plus

METAR: ELLX 172050Z AUTO 06012KT 9999 NCD 04/M02 Q1025 NOSIG

Heure: 22:27 (21:27 UTC)

Prévision

Le bulletin a été fait il y a 4 heures et 27 minutes, à 17:00 UTC
Prévision valable du 17 à 18 UTC au 18 à 24 UTC
Vent 12 kt de est/nord-est avec des rafales jusqu'à 22 kt
Visibilité 10 km ou plus
pas de nuages en-dessous de 1500 mètres et pas de cumulonimbus.

TAF: ELLX 171700Z 1718/1824 06012G22KT CAVOK

Observations et prévisions météorologiques de plus de 4000 aéroports (messages METAR et TAF).

Les stations disponibles sont représentées par des disques jaunes et rouges sur la carte.

Passer la souris dessus pour voir le nom de la station.

Cliquer dessus pour voir les observations et prévisions météorologiques.

Pour changer de carte: cliquez sur les boutons verts avec une croix noire pour zoomer, sur le bouton vert avec un tiret pour effectuer un zoom arrière, ou sur les flèches vertes pour les cartes adjacentes.


METAR-TAF: